Fayetteville Regional Grannis Field Fayetteville US
ICAO: KFAY
IATA: FAY
Category: Medium
Scheduled Services: Yes

Elevation: 189 ft
TransAlt. 18000 ft.

Airport Communications:
APP/DEP:125.175
ATIS:121.25
GND:121.7
RALEIGH RDO:25.54
TWR:118.3
UNICOM:122.95

KFAY Zoom In..

If Map Doesn't Load, Click Here

Runways:

(A) RW 04 length 7709 ft width 150 ft
ILS 110.50 / hdg 38

(B) RW 10 length 4801 ft width 150 ft
---- / hdg 98

(C) RW 22 length 7709 ft width 150 ft
---- / hdg 218

(D) RW 28 length 4801 ft width 150 ft
---- / hdg 278

Location; KFAY
Day. 23 / Time. 07.53 Zulu
* Altimeter: 30.07
* Temperature: 21° c. 69.8°f.
* Wind from: 000° Speed 00 kn.
Dewpoint: 19° c.
Visibility: 8 Statute Miles.
Clouds: Clear (automated report).

KFAY 230753Z 00000KT 8SM CLR 21/19 A3007 RMK AO2 SLP176 T02060194


Wind - Calm.

 
 
jpsmedia.com for Web Design worldairports.se 2018   terms of use